This is the latest recevied weather packets stored in our database for station/object EB2EMZ-15. If no packets are shown the sender has not sent any weather packets the latest 1 day(s).
| Time | Temp. | Humidity | Pressure | Rain* | Wind** | Luminosity | Snow |
|---|---|---|---|---|---|---|---|
| 1778079312 | 16.67° C | 70% | 993.9 hPa | 0 mm | - | - | - |
| 1778078113 | 17.22° C | 69% | 993.9 hPa | 0 mm | - | - | - |
| 1778077817 | 17.22° C | 69% | 993.9 hPa | 0 mm | - | - | - |
| 1778075416 | 16.67° C | 70% | 994.4 hPa | 0 mm | - | - | - |
| 1778075112 | 16.11° C | 69% | 994.4 hPa | 0 mm | - | - | - |
| 1778072112 | 17.22° C | 63% | 993.8 hPa | 0 mm | - | - | - |
| 1778070616 | 18.33° C | 59% | 993.6 hPa | 0 mm | - | - | - |
| 1778069712 | 18.89° C | 60% | 993.6 hPa | 0 mm | - | - | - |
| 1778068512 | 17.78° C | 63% | 993.7 hPa | 0 mm | - | - | - |
| 1778068216 | 17.22° C | 63% | 993.7 hPa | 0 mm | - | - | - |
| 1778067016 | 17.22° C | 62% | 994 hPa | 0 mm | - | - | - |
| 1778066112 | 17.78° C | 59% | 993.9 hPa | 0 mm | - | - | - |
| 1778065816 | 18.33° C | 58% | 993.9 hPa | 0 mm | - | - | - |
| 1778063415 | 19.44° C | 59% | 993.6 hPa | 0 mm | - | - | - |
| 1778063112 | 19.44° C | 59% | 993.7 hPa | 0 mm | - | - | - |
| 1778062815 | 19.44° C | 60% | 993.7 hPa | 0 mm | - | - | - |
| 1778061913 | 18.89° C | 62% | 993.7 hPa | 0 mm | - | - | - |
| 1778061015 | 18.33° C | 63% | 993.9 hPa | 0 mm | - | - | - |
| 1778060712 | 18.33° C | 63% | 993.9 hPa | 0 mm | - | - | - |
| 1778060415 | 18.33° C | 64% | 993.7 hPa | 0 mm | - | - | - |
| 1778059815 | 17.78° C | 62% | 993.7 hPa | 0 mm | - | - | - |
| 1778059216 | 18.89° C | 60% | 993.8 hPa | 0 mm | - | - | - |
| 1778058011 | 21.11° C | 58% | 993.7 hPa | 0 mm | - | - | - |
| 1778057414 | 21.11° C | 61% | 993.4 hPa | 0 mm | - | - | - |
| 1778056512 | 20° C | 64% | 993.6 hPa | 0 mm | - | - | - |
* Rain latest hour (hover to see other rain measurements)
** Current wind speed in m/s (hover to see current wind gust speed)